Condiciones actuales en los principales Aeropuertos de España-Datos Metar

 

LEAL - Alicante
Actualización: 13/07/2020 13:00
Despejado
Despejado
 Viento del E
Viento: E 26 km/h
Temperatura: 30°C
Heat Index: 32°C
Rocío: 20°C
Humedad: 55%
Barómetro: 1018 hPa
Resumen: Despejado
Visibilidad: greater than 10 km
2020/07/13 11:00 LEAL 131100Z 08014KT CAVOK 30/20 Q1018 NOSIG
LEAB - Albacete
Actualización: 13/07/2020 13:00
Despejado
Despejado
 Viento del ESE
Viento: ESE 15 km/h
Temperatura: 30°C
Rocío: 11°C
Humedad: 31%
Barómetro: 1021 hPa
Resumen: Despejado
Visibilidad: greater than 10 km
2020/07/13 11:00 LEAB 131100Z 12008KT 060V230 CAVOK 30/11 Q1021 NOSIG
LEAM - Almería
Actualización: 13/07/2020 13:00
Despejado
Despejado
 Viento del SO
Viento: SO 15 km/h
Temperatura: 29°C
Heat Index: 30°C
Rocío: 19°C
Humedad: 55%
Barómetro: 1017 hPa
Resumen: Despejado
Visibilidad: greater than 10 km
2020/07/13 11:00 LEAM 131100Z 22008KT 160V240 CAVOK 29/19 Q1017
 
LEAS - Asturias/Aviles
Actualización: 13/07/2020 13:00
Despejado
Despejado
 Viento del NE
Viento: NE 11 km/h
Temperatura: 21°C
Rocío: 16°C
Humedad: 73%
Barómetro: 1025 hPa
Resumen: Despejado
Visibilidad: greater than 10 km
2020/07/13 11:00 LEAS 131100Z 05006KT 010V100 CAVOK 21/16 Q1025 NOSIG
LEBZ - Badajoz/Talavera la Real
Actualización: 13/07/2020 13:00
Despejado
Despejado
 Viento del N
Viento: N 17 km/h
Temperatura: 35°C
Rocío: 15°C
Humedad: 30%
Barómetro: 1017 hPa
Resumen: Despejado
Visibilidad: greater than 10 km
2020/07/13 11:00 LEBZ 131100Z 36009KT 310V040 CAVOK 35/15 Q1017
LEBL - Barcelona
Actualización: 13/07/2020 13:00
Despejado
Despejado
 Viento del S
Viento: S 9 km/h
Temperatura: 27°C
Heat Index: 28°C
Rocío: 19°C
Humedad: 62%
Barómetro: 1019 hPa
Resumen: Despejado
Visibilidad: greater than 10 km
2020/07/13 11:00 LEBL 131100Z 17005KT 110V220 CAVOK 27/19 Q1019 NOSIG
 
LEBB - Bilbao
Actualización: 13/07/2020 13:00
Partly Cloudy
Partly Cloudy
 Viento del NO
Viento: NO 11 km/h
Temperatura: 24°C
Rocío: 17°C
Humedad: 65%
Barómetro: 1024 hPa
Nubosidad: Partly Cloudy
Visibilidad: 10 km
Cloud details: Partly Cloudy 701 m
2020/07/13 11:00 LEBB 131100Z 31006KT 250V350 9999 SCT023 24/17 Q1024 NOSIG
LEBG - Burgos/Villafría
Actualización: 13/07/2020 13:00
Despejado
Despejado
 Viento del NE
Viento: NE 26 km/h
Temperatura: 21°C
Rocío: 10°C
Humedad: 50%
Barómetro: 1025 hPa
Resumen: Despejado
Visibilidad: greater than 10 km
2020/07/13 11:00 LEBG 131100Z 05014KT 010V080 CAVOK 21/10 Q1025
LEBA - Córdoba
Actualización: 13/07/2020 13:00
Despejado
Despejado
 Viento del O
Viento: O 11 km/h
Temperatura: 32°C
Heat Index: 33°C
Rocío: 18°C
Humedad: 43%
Barómetro: 1017 hPa
Resumen: Despejado
Visibilidad: greater than 10 km
2020/07/13 11:00 LEBA 131100Z 26006KT 190V320 CAVOK 32/18 Q1017
 
LEGE - Gerona
Actualización: 13/07/2020 13:00
Few Clouds
Few Clouds
 Viento del NE
Viento: NE 17 km/h
Temperatura: 29°C
Heat Index: 28°C
Rocío: 14°C
Humedad: 40%
Barómetro: 1019 hPa
Nubosidad: Few Clouds
Visibilidad: 10 km
Cloud details: Few Clouds 1219 m
2020/07/13 11:00 LEGE 131100Z 05009KT 360V090 9999 FEW040 29/14 Q1019
LEGR - Granada
Actualización: 13/07/2020 13:00
Few Clouds
Few Clouds
 Viento del varies
Viento: varies 2 km/h
Temperatura: 32°C
Rocío: 13°C
Humedad: 31%
Barómetro: 1019 hPa
Nubosidad: Few Clouds
Visibilidad: 10 km
Cloud details: Few Clouds 2438 m
2020/07/13 11:00 LEGR 131100Z VRB01KT 9999 FEW080 32/13 Q1019
GCHI - Hierro
Actualización: 13/07/2020 13:00
Partly Cloudy
Partly Cloudy
 Viento del N
Viento: N 33 km/h
Temperatura: 24°C
Rocío: 18°C
Humedad: 69%
Barómetro: 1020 hPa
Nubosidad: Partly Cloudy
Visibilidad: 10 km
Cloud details: Few Clouds 549 m
Partly Cloudy 671 m
2020/07/13 11:00 GCHI 131100Z 35018KT 320V020 9999 FEW018 SCT022 24/18 Q1020
 
LEIB - Ibiza
Actualización: 13/07/2020 13:00
Despejado
Despejado
 Viento del E
Viento: E 22 km/h
Temperatura: 29°C
Heat Index: 31°C
Rocío: 21°C
Humedad: 62%
Barómetro: 1018 hPa
Resumen: Despejado
Visibilidad: greater than 10 km
2020/07/13 11:00 LEIB 131100Z 09012KT 060V120 CAVOK 29/21 Q1018 NOSIG
LEJR - Jerez de la Frontera
Actualización: 13/07/2020 13:00
Despejado
Despejado
 Viento del varies
Viento: varies 6 km/h
Temperatura: 33°C
Heat Index: 34°C
Rocío: 18°C
Humedad: 41%
Barómetro: 1017 hPa
Resumen: Despejado
Visibilidad: greater than 10 km
2020/07/13 11:00 LEJR 131100Z VRB03KT CAVOK 33/18 Q1017
LECO - A Coruña
Actualización: 13/07/2020 13:00
Despejado
Despejado
 Viento del N
Viento: N 15 km/h
Temperatura: 24°C
Rocío: 14°C
Humedad: 54%
Barómetro: 1024 hPa
Resumen: Despejado
Visibilidad: greater than 10 km
2020/07/13 11:00 LECO 131100Z 36008KT 310V070 CAVOK 24/14 Q1024 NOSIG
 
GCLA - La Palma
Actualización: 13/07/2020 13:00
Few Clouds
Few Clouds
 Viento del NNE
Viento: NNE 24 km/h
Temperatura: 24°C
Rocío: 17°C
Humedad: 65%
Barómetro: 1020 hPa
Nubosidad: Few Clouds
Visibilidad: 10 km
Cloud details: Few Clouds 610 m
2020/07/13 11:00 GCLA 131100Z 02013KT 350V050 9999 FEW020 24/17 Q1020
GCRR - Lanzarote
Actualización: 13/07/2020 13:00
Few Clouds
Few Clouds
 Viento del N
Viento: N 35 km/h
Temperatura: 27°C
Heat Index: 28°C
Rocío: 18°C
Humedad: 58%
Barómetro: 1018 hPa
Nubosidad: Few Clouds
Visibilidad: 10 km
Cloud details: Few Clouds 457 m
2020/07/13 11:00 GCRR 131100Z 36019KT 9999 FEW015 27/18 Q1018
GCLP - Las Palmas
Actualización: 13/07/2020 13:00
Few Clouds
Few Clouds
 Viento del NNE
Viento: NNE 50 km/h
Temperatura: 25°C
Rocío: 18°C
Humedad: 65%
Barómetro: 1018 hPa
Nubosidad: Few Clouds
Visibilidad: 10 km
Cloud details: Few Clouds 762 m
2020/07/13 11:00 GCLP 131100Z 03027KT 9999 FEW025 25/18 Q1018 NOSIG
 
LELN - León
Actualización: 13/07/2020 13:00
Few Clouds
Few Clouds
 Viento del NE
Viento: NE 9 km/h
Temperatura: 23°C
Rocío: 11°C
Humedad: 47%
Barómetro: 1024 hPa
Nubosidad: Few Clouds
Visibilidad: 10 km
Cloud details: Few Clouds 1219 m
2020/07/13 11:00 LELN 131100Z 05005KT 360V110 9999 FEW040 23/11 Q1024
LELO - Logroño
Actualización: 13/07/2020 13:00
Despejado
Despejado
 Viento del varies
Viento: varies 19 km/h
Temperatura: 26°C
Rocío: 12°C
Humedad: 42%
Barómetro: 1023 hPa
Resumen: Despejado
Visibilidad: greater than 10 km
2020/07/13 11:00 LELO 131100Z VRB10KT CAVOK 26/12 Q1023
LECV - Madrid/Colmenar
Actualización: 13/07/2020 13:00
Few Clouds
Few Clouds
 Viento del ENE
Viento: ENE 13 km/h
Temperatura: 29°C
Rocío: 9°C
Humedad: 29%
Barómetro: 1023 hPa
Nubosidad: Few Clouds
Visibilidad: 10 km
Cloud details: Few Clouds 1829 m
2020/07/13 11:00 LECV 131100Z 06007KT 9999 FEW060 29/09 Q1023
 
LEMD - Madrid/Barajas
Actualización: 13/07/2020 13:00
Despejado
Despejado
 Viento del NNE
Viento: NNE 11 km/h
Temperatura: 31°C
Rocío: 11°C
Humedad: 29%
Barómetro: 1020 hPa
Resumen: Despejado
Visibilidad: greater than 10 km
2020/07/13 11:00 LEMD 131100Z 03006KT CAVOK 31/11 Q1020 NOSIG
LEVS - Madrid/Cuatro Vientos
Actualización: 13/07/2020 13:00
Despejado
Despejado
 Viento del varies
Viento: varies 13 km/h
Temperatura: 30°C
Rocío: 12°C
Humedad: 33%
Barómetro: 1021 hPa
Resumen: Despejado
Visibilidad: greater than 10 km
2020/07/13 11:00 LEVS 131100Z VRB07KT CAVOK 30/12 Q1021
LEGT - Madrid/Getafe
Actualización: 13/07/2020 13:00
Despejado
Despejado
 Viento del NE
Viento: NE 15 km/h
Temperatura: 31°C
Rocío: 12°C
Humedad: 31%
Barómetro: 1021 hPa
Resumen: Despejado
Visibilidad: greater than 10 km
2020/07/13 11:00 LEGT 131100Z 05008KT 330V120 CAVOK 31/12 Q1021
 
LETO - Madrid/Torrejón
Actualización: 13/07/2020 13:00
Despejado
Despejado
 Viento del NE
Viento: NE 13 km/h
Temperatura: 30°C
Rocío: 13°C
Humedad: 35%
Barómetro: 1020 hPa
Resumen: Despejado
Visibilidad: greater than 10 km
2020/07/13 11:00 LETO 131100Z 05007KT 340V120 CAVOK 30/13 Q1020 NOSIG
LEMG - Málaga
Actualización: 13/07/2020 13:00
Despejado
Despejado
 Viento del SSE
Viento: SSE 15 km/h
Temperatura: 30°C
Heat Index: 31°C
Rocío: 17°C
Humedad: 46%
Barómetro: 1017 hPa
Resumen: Despejado
Visibilidad: greater than 10 km
2020/07/13 11:00 LEMG 131100Z 15008KT 100V200 CAVOK 30/17 Q1017 NOSIG
GEML - Melilla
Actualización: 13/07/2020 13:00
Few Clouds
Few Clouds
 Viento del ENE
Viento: ENE 11 km/h
Temperatura: 28°C
Heat Index: 29°C
Rocío: 20°C
Humedad: 62%
Barómetro: 1017 hPa
Nubosidad: Few Clouds
Visibilidad: 10 km
Cloud details: Few Clouds 914 m
2020/07/13 11:00 GEML 131100Z 07006KT 020V120 9999 FEW030 28/20 Q1017
 
LEMH - Mahón
Actualización: 13/07/2020 13:00
Despejado
Despejado
 Viento del NE
Viento: NE 19 km/h
Temperatura: 26°C
Rocío: 19°C
Humedad: 65%
Barómetro: 1018 hPa
Resumen: Despejado
Visibilidad: greater than 10 km
2020/07/13 11:00 LEMH 131100Z 04010KT 350V070 CAVOK 26/19 Q1018
LEMO - Morón de La Frontera
Actualización: 13/07/2020 13:00
Despejado
Despejado
 Viento del varies
Viento: varies 7 km/h
Temperatura: 31°C
Heat Index: 33°C
Rocío: 19°C
Humedad: 49%
Barómetro: 1017 hPa
Resumen: Despejado
Visibilidad: greater than 10 km
2020/07/13 11:00 LEMO 131100Z VRB04KT CAVOK 31/19 Q1017 NOSIG
LEMI - Murcia/Corvera
Actualización: 13/07/2020 13:00
Despejado
Despejado
 Viento del E
Viento: E 19 km/h
Temperatura: 30°C
Heat Index: 30°C
Rocío: 16°C
Humedad: 43%
Barómetro: 1018 hPa
Resumen: Despejado
Visibilidad: greater than 10 km
2020/07/13 11:00 LEMI 131100Z 08010KT 010V110 CAVOK 30/16 Q1018
 
LERI - Murcia/Alcantarilla
Actualización: 13/07/2020 13:00
Despejado
Despejado
 Viento del ENE
Viento: ENE 15 km/h
Temperatura: 31°C
Rocío: 15°C
Humedad: 38%
Barómetro: 1018 hPa
Resumen: Despejado
Visibilidad: greater than 10 km
2020/07/13 11:00 LERI 131100Z 06008KT 330V140 CAVOK 31/15 Q1018 NOSIG
LELC - Murcia/San Javier
Actualización: 13/07/2020 13:00
Few Clouds
Few Clouds
 Viento del NE
Viento: NE 28 km/h
Temperatura: 29°C
Heat Index: 31°C
Rocío: 21°C
Humedad: 62%
Barómetro: 1017 hPa
Nubosidad: Few Clouds
Visibilidad: 10 km
Cloud details: Few Clouds 914 m
2020/07/13 11:00 LELC 131100Z 05015KT 020V080 9999 FEW030 29/21 Q1017 NOSIG
LEPA - Palma de Mallorca
Actualización: 13/07/2020 13:00
Few Clouds
Few Clouds
 Viento del ENE
Viento: ENE 24 km/h
Temperatura: 31°C
Rocío: 15°C
Humedad: 38%
Barómetro: 1018 hPa
Nubosidad: Few Clouds
Visibilidad: 10 km
Cloud details: Few Clouds 914 m
2020/07/13 11:00 LEPA 131100Z 06013KT 030V100 9999 FEW030 31/15 Q1018 NOSIG
 
LEPP - Pamplona
Actualización: 13/07/2020 13:00
Few Clouds
Few Clouds
 Viento del NNO
Viento: NNO 30 km/h
Temperatura: 24°C
Rocío: 13°C
Humedad: 50%
Barómetro: 1023 hPa
Nubosidad: Few Clouds
Visibilidad: 10 km
Cloud details: Few Clouds 1219 m
2020/07/13 11:00 LEPP 131100Z 33016KT 280V360 9999 FEW040 24/13 Q1023
LERS - Reus
Actualización: 13/07/2020 13:00
Few Clouds
Few Clouds
 Viento del ESE
Viento: ESE 15 km/h
Temperatura: 29°C
Heat Index: 30°C
Rocío: 19°C
Humedad: 55%
Barómetro: 1019 hPa
Nubosidad: Few Clouds
Visibilidad: 10 km
Cloud details: Few Clouds 1219 m
2020/07/13 11:00 LERS 131100Z 11008KT 010V170 9999 FEW040 29/19 Q1019
LERT - Rota
Actualización: 13/07/2020 13:00
Despejado
Despejado
 Viento del O
Viento: O 15 km/h
Temperatura: 28°C
Heat Index: 29°C
Rocío: 20°C
Humedad: 62%
Barómetro: 1017 hPa
Resumen: Despejado
Visibilidad: greater than 10 km
2020/07/13 11:00 LERT 131100Z 26008KT 220V310 CAVOK 28/20 Q1017 NOSIG
 
LELL - Sabadell
Actualización: 13/07/2020 13:00
Despejado
Despejado
 Viento del SSO
Viento: SSO 6 km/h
Temperatura: 31°C
Rocío: 15°C
Humedad: 38%
Barómetro: 1019 hPa
Resumen: Despejado
Visibilidad: greater than 10 km
2020/07/13 11:00 LELL 131100Z 20003KT CAVOK 31/15 Q1019
LESA - Salamanca
Actualización: 13/07/2020 13:00
Despejado
Despejado
 Viento del NE
Viento: NE 13 km/h
Temperatura: 25°C
Rocío: 13°C
Humedad: 47%
Barómetro: 1023 hPa
Resumen: Despejado
Visibilidad: greater than 10 km
2020/07/13 11:00 LESA 131100Z 05007KT 350V080 CAVOK 25/13 Q1023
LESO - San Sebastián
Actualización: 13/07/2020 13:00
Few Clouds
Few Clouds
 Viento del ONO
Viento: ONO 19 km/h
Temperatura: 23°C
Rocío: 18°C
Humedad: 74%
Barómetro: 1024 hPa
Nubosidad: Few Clouds
Visibilidad: 10 km
Cloud details: Few Clouds 610 m
2020/07/13 11:00 LESO 131100Z 30010KT 270V330 9999 FEW020 23/18 Q1024
 
LEXJ - Santander
Actualización: 13/07/2020 13:00
Few Clouds
Few Clouds
 Viento del NO
Viento: NO 9 km/h
Temperatura: 24°C
Rocío: 17°C
Humedad: 65%
Barómetro: 1025 hPa
Nubosidad: Few Clouds
Visibilidad: 10 km
Cloud details: Few Clouds 671 m
2020/07/13 11:00 LEXJ 131100Z 31005KT 240V020 9999 FEW022 24/17 Q1025
LEPA - Palma de Mallorca
Actualización: 13/07/2020 13:00
Few Clouds
Few Clouds
 Viento del ENE
Viento: ENE 24 km/h
Temperatura: 31°C
Rocío: 15°C
Humedad: 38%
Barómetro: 1018 hPa
Nubosidad: Few Clouds
Visibilidad: 10 km
Cloud details: Few Clouds 914 m
2020/07/13 11:00 LEPA 131100Z 06013KT 030V100 9999 FEW030 31/15 Q1018 NOSIG
LEPP - Pamplona
Actualización: 13/07/2020 13:00
Few Clouds
Few Clouds
 Viento del NNO
Viento: NNO 30 km/h
Temperatura: 24°C
Rocío: 13°C
Humedad: 50%
Barómetro: 1023 hPa
Nubosidad: Few Clouds
Visibilidad: 10 km
Cloud details: Few Clouds 1219 m
2020/07/13 11:00 LEPP 131100Z 33016KT 280V360 9999 FEW040 24/13 Q1023
 
LEST - Santiago de Compostela
Actualización: 13/07/2020 13:00
Despejado
Despejado
 Viento del NE
Viento: NE 24 km/h
Temperatura: 24°C
Rocío: 12°C
Humedad: 47%
Barómetro: 1023 hPa
Resumen: Despejado
Visibilidad: greater than 10 km
2020/07/13 11:00 LEST 131100Z 05013KT 010V080 CAVOK 24/12 Q1023 NOSIG
LEZL - Sevilla
Actualización: 13/07/2020 13:00
Despejado
Despejado
 Viento del O
Viento: O 11 km/h
Temperatura: 31°C
Heat Index: 32°C
Rocío: 17°C
Humedad: 43%
Barómetro: 1017 hPa
Resumen: Despejado
Visibilidad: greater than 10 km
2020/07/13 11:00 LEZL 131100Z 26006KT 200V360 CAVOK 31/17 Q1017 NOSIG
GCXO - Tenerife
Actualización: 13/07/2020 13:00
Few Clouds
Few Clouds
 Viento del O
Viento: O 22 km/h
Temperatura: 22°C
Rocío: 16°C
Humedad: 69%
Barómetro: 1021 hPa
Nubosidad: Few Clouds
Visibilidad: 10 km
Cloud details: Few Clouds 122 m
2020/07/13 11:00 GCXO 131100Z 28012KT 9999 FEW004 22/16 Q1021 NOSIG
 
GCTS - Tenerife-Sur
Actualización: 13/07/2020 13:00
Despejado
Despejado
 Viento del E
Viento: E 33 km/h
Temperatura: 25°C
Rocío: 18°C
Humedad: 65%
Barómetro: 1019 hPa
Resumen: Despejado
Visibilidad: greater than 10 km
2020/07/13 11:00 GCTS 131100Z 09018KT CAVOK 25/18 Q1019 NOSIG
LEVC - Valencia
Actualización: 13/07/2020 13:00
Partly Cloudy
Partly Cloudy
 Viento del E
Viento: E 13 km/h
Temperatura: 28°C
Heat Index: 30°C
Rocío: 21°C
Humedad: 66%
Barómetro: 1019 hPa
Nubosidad: Partly Cloudy
Visibilidad: 10 km
Cloud details: Partly Cloudy 762 m
2020/07/13 11:00 LEVC 131100Z 08007KT 050V140 9999 SCT025 28/21 Q1019 NOSIG
LEVD - Valladolid
Actualización: 13/07/2020 13:00
Despejado
Despejado
 Viento del ENE
Viento: ENE 15 km/h
Temperatura: 25°C
Rocío: 12°C
Humedad: 44%
Barómetro: 1024 hPa
Resumen: Despejado
Visibilidad: greater than 10 km
2020/07/13 11:00 LEVD 131100Z 07008KT 030V110 CAVOK 25/12 Q1024
 
LEVX - Vigo
Actualización: 13/07/2020 13:00
Despejado
Despejado
 Viento del varies
Viento: varies 6 km/h
Temperatura: 29°C
Heat Index: 29°C
Rocío: 18°C
Humedad: 51%
Barómetro: 1021 hPa
Resumen: Despejado
Visibilidad: greater than 10 km
2020/07/13 11:00 LEVX 131100Z VRB03KT CAVOK 29/18 Q1021 NOSIG
LEVT - Vitoria
Actualización: 13/07/2020 13:00
Few Clouds
Few Clouds
 Viento del NNE
Viento: NNE 24 km/h
Temperatura: 23°C
Rocío: 13°C
Humedad: 53%
Barómetro: 1025 hPa
Nubosidad: Few Clouds
Visibilidad: 10 km
Cloud details: Few Clouds 1158 m
2020/07/13 11:00 LEVT 131100Z 02013KT 350V070 9999 FEW038 23/13 Q1025
LEZG - Zaragoza
Actualización: 13/07/2020 13:00
Despejado
Despejado
 Viento del NO
Viento: NO 24 km/h
Temperatura: 28°C
Heat Index: 27°C
Rocío: 13°C
Humedad: 40%
Barómetro: 1020 hPa
Resumen: Despejado
Visibilidad: greater than 10 km
2020/07/13 11:00 LEZG 131100Z 31013KT 270V340 CAVOK 28/13 Q1020

La estación de MeteoMurcia.com, publica sus datos en los siguientes proyectos:

Weather Underground PWS IMURCIAP2 Meteoclimatic www.awekas.at

W3Counter
Web Analytics